createdAt,value
2018-01-06T00:09:34.000Z,17.9
2018-01-06T00:19:34.000Z,17.6
2018-01-06T00:29:34.000Z,17.4
2018-01-06T00:39:34.000Z,17.3
2018-01-06T00:49:34.000Z,17.2
2018-01-06T00:59:34.000Z,17.1
2018-01-06T01:09:34.000Z,17
2018-01-06T01:19:34.000Z,16.9
2018-01-06T01:29:34.000Z,16.7
2018-01-06T01:39:34.000Z,16.9
2018-01-06T01:49:34.000Z,16.9
2018-01-06T01:59:34.000Z,16.7
2018-01-06T02:09:34.000Z,16.6
2018-01-06T02:19:34.000Z,16.6
2018-01-06T02:29:34.000Z,16.6
2018-01-06T02:39:34.000Z,16.8
2018-01-06T02:49:35.000Z,16.5
2018-01-06T02:59:34.000Z,16.4
2018-01-06T03:09:35.000Z,16.4
2018-01-06T03:19:35.000Z,16.7
2018-01-06T03:29:35.000Z,16.5
2018-01-06T03:39:35.000Z,16.3
2018-01-06T03:49:35.000Z,16.4
2018-01-06T03:59:35.000Z,16.3
2018-01-06T04:09:35.000Z,16.3
2018-01-06T04:19:35.000Z,16.2
2018-01-06T04:29:35.000Z,16
2018-01-06T04:39:35.000Z,16.1
2018-01-06T04:49:35.000Z,16
2018-01-06T04:59:35.000Z,15.9
2018-01-06T05:09:35.000Z,16
2018-01-06T05:19:35.000Z,16
2018-01-06T05:29:35.000Z,16
2018-01-06T05:39:35.000Z,15.9
2018-01-06T05:49:35.000Z,15.9
2018-01-06T05:59:35.000Z,15.9
2018-01-06T06:09:35.000Z,16.1
2018-01-06T06:19:35.000Z,16.1
2018-01-06T06:29:35.000Z,16
2018-01-06T06:39:35.000Z,16
2018-01-06T06:49:35.000Z,15.9
2018-01-06T06:59:35.000Z,15.9
2018-01-06T07:09:35.000Z,15.8
2018-01-06T07:19:35.000Z,15.8
2018-01-06T07:29:35.000Z,15.8
2018-01-06T07:39:35.000Z,15.8
2018-01-06T07:49:35.000Z,15.7
2018-01-06T07:59:35.000Z,15.8
2018-01-06T08:09:35.000Z,15.7
2018-01-06T08:19:35.000Z,15.7
2018-01-06T08:29:35.000Z,15.9
2018-01-06T08:39:35.000Z,15.6
2018-01-06T08:49:35.000Z,15.6
2018-01-06T08:59:35.000Z,15.5
2018-01-06T09:09:35.000Z,15.5
2018-01-06T09:19:35.000Z,15.4
2018-01-06T09:29:35.000Z,15.5
2018-01-06T09:39:35.000Z,15.7
2018-01-06T09:59:35.000Z,15.7
2018-01-06T10:09:35.000Z,15.7
2018-01-06T10:19:36.000Z,15.7
2018-01-06T10:29:36.000Z,15.7
2018-01-06T10:39:36.000Z,16.4
2018-01-06T10:49:36.000Z,17.6
2018-01-06T10:59:36.000Z,18.1
2018-01-06T11:09:36.000Z,18.3
2018-01-06T11:19:36.000Z,18.4
2018-01-06T11:29:36.000Z,18.8
2018-01-06T11:39:36.000Z,18.5
2018-01-06T11:49:36.000Z,18.8
2018-01-06T11:59:36.000Z,18.9
2018-01-06T12:09:36.000Z,19
2018-01-06T12:19:36.000Z,19.1
2018-01-06T12:29:36.000Z,19.7
2018-01-06T12:39:36.000Z,19.9
2018-01-06T12:49:36.000Z,19.6
2018-01-06T12:59:36.000Z,19.3
2018-01-06T13:09:36.000Z,19.3
2018-01-06T13:19:36.000Z,19.4
2018-01-06T13:29:36.000Z,19.3
2018-01-06T13:39:36.000Z,19.4
2018-01-06T13:49:36.000Z,19.3
2018-01-06T13:59:36.000Z,19.4
2018-01-06T14:09:36.000Z,19.4
2018-01-06T14:19:36.000Z,19.5
2018-01-06T14:29:36.000Z,19.5
2018-01-06T14:39:36.000Z,19.3
2018-01-06T14:49:36.000Z,19.4
2018-01-06T14:59:36.000Z,19.3
2018-01-06T15:09:36.000Z,19.3
2018-01-06T15:19:36.000Z,19.3
2018-01-06T15:29:40.000Z,19.3
2018-01-06T15:49:36.000Z,19.3
2018-01-06T15:59:40.000Z,19.4
2018-01-06T16:09:40.000Z,19.4
2018-01-06T16:19:36.000Z,19.5
2018-01-06T16:29:36.000Z,19.4
2018-01-06T16:39:36.000Z,19.5
2018-01-06T16:49:38.000Z,19.4
2018-01-06T16:59:36.000Z,19.6
2018-01-06T17:09:36.000Z,19.6
2018-01-06T17:19:37.000Z,19.6
2018-01-06T17:29:37.000Z,19.7
2018-01-06T17:39:37.000Z,19.8
2018-01-06T17:49:37.000Z,19.9
2018-01-06T17:59:37.000Z,19.9
2018-01-06T18:09:37.000Z,19.9
2018-01-06T18:19:37.000Z,19.9
2018-01-06T18:29:38.000Z,19.9
2018-01-06T18:39:37.000Z,19.9
2018-01-06T18:49:37.000Z,19.9
2018-01-06T18:59:37.000Z,19.9
2018-01-06T19:09:37.000Z,19.9
2018-01-06T19:19:37.000Z,19.9
2018-01-06T19:29:39.000Z,19.9
2018-01-06T19:39:37.000Z,20
2018-01-06T19:59:38.000Z,20
2018-01-06T20:09:37.000Z,19.8
2018-01-06T20:19:37.000Z,19.9
2018-01-06T20:29:37.000Z,19.9
2018-01-06T20:39:37.000Z,19.9
2018-01-06T20:49:37.000Z,20
2018-01-06T20:59:37.000Z,20
2018-01-06T21:09:37.000Z,20
2018-01-06T21:19:37.000Z,20
2018-01-06T21:29:37.000Z,20.1
2018-01-06T21:39:37.000Z,20
2018-01-06T21:49:37.000Z,20.1
2018-01-06T21:59:37.000Z,20.1
2018-01-06T22:09:37.000Z,20.4
2018-01-06T22:19:37.000Z,20.7
2018-01-06T22:39:38.000Z,20.8
2018-01-06T22:49:37.000Z,20.9
2018-01-06T22:59:37.000Z,21
2018-01-06T23:09:37.000Z,21.1
2018-01-06T23:19:38.000Z,21.1
2018-01-06T23:29:37.000Z,21.1
2018-01-06T23:39:40.000Z,21.1
2018-01-06T23:49:38.000Z,20.9
